createdAt,value
2022-10-31T00:01:27.599Z,4.68
2022-10-31T00:03:55.507Z,5.07
2022-10-31T00:06:24.377Z,4.72
2022-10-31T00:08:58.006Z,4.70
2022-10-31T00:11:26.118Z,4.80
2022-10-31T00:13:53.592Z,4.43
2022-10-31T00:16:25.969Z,3.97
2022-10-31T00:18:55.532Z,3.58
2022-10-31T00:21:24.109Z,3.85
2022-10-31T00:23:51.599Z,4.05
2022-10-31T00:26:19.423Z,3.58
2022-10-31T00:28:47.139Z,3.88
2022-10-31T00:31:15.610Z,3.80
2022-10-31T00:33:43.614Z,3.80
2022-10-31T00:36:17.277Z,3.70
2022-10-31T00:38:45.993Z,3.83
2022-10-31T00:41:16.731Z,3.88
2022-10-31T00:43:44.751Z,3.95
2022-10-31T00:46:13.238Z,3.70
2022-10-31T00:48:42.082Z,3.92
2022-10-31T00:51:11.211Z,3.40
2022-10-31T00:53:40.383Z,3.75
2022-10-31T00:56:08.121Z,3.88
2022-10-31T00:58:36.026Z,3.40
2022-10-31T01:01:03.603Z,3.42
2022-10-31T01:03:33.888Z,3.25
2022-10-31T01:06:07.074Z,3.33
2022-10-31T01:08:38.232Z,4.20
2022-10-31T01:11:18.040Z,3.50
2022-10-31T01:13:46.600Z,4.25
2022-10-31T01:16:17.227Z,3.40
2022-10-31T01:18:44.668Z,3.88
2022-10-31T01:21:18.071Z,3.20
2022-10-31T01:23:45.703Z,3.30
2022-10-31T01:26:24.073Z,3.25
2022-10-31T01:28:52.996Z,3.55
2022-10-31T01:31:22.606Z,3.38
2022-10-31T01:33:50.174Z,3.38
2022-10-31T01:36:30.421Z,3.65
2022-10-31T01:39:05.440Z,3.35
2022-10-31T01:41:36.133Z,3.80
2022-10-31T01:44:24.850Z,3.13
2022-10-31T01:47:00.958Z,3.55
2022-10-31T01:49:50.082Z,3.45
2022-10-31T01:52:29.048Z,4.47
2022-10-31T01:55:02.749Z,5.35
2022-10-31T01:57:33.342Z,5.10
2022-10-31T02:00:07.777Z,4.90
2022-10-31T02:02:41.572Z,5.63
2022-10-31T02:05:17.969Z,6.05
2022-10-31T02:07:54.293Z,6.28
2022-10-31T02:10:30.577Z,5.60
2022-10-31T02:13:01.404Z,5.55
2022-10-31T02:15:31.630Z,5.70
2022-10-31T02:17:59.807Z,5.20
2022-10-31T02:20:35.069Z,5.50
2022-10-31T02:23:19.821Z,4.40
2022-10-31T02:26:05.954Z,3.90
2022-10-31T02:29:07.058Z,3.53
2022-10-31T02:32:20.489Z,3.97
2022-10-31T02:34:50.769Z,3.88
2022-10-31T02:37:52.732Z,4.70
2022-10-31T02:40:43.791Z,4.30
2022-10-31T02:44:09.610Z,4.40
2022-10-31T02:47:00.726Z,3.42
2022-10-31T02:49:41.646Z,3.65
2022-10-31T02:52:20.550Z,3.90
2022-10-31T02:54:49.997Z,4.05
2022-10-31T02:57:21.886Z,3.65
2022-10-31T02:59:52.329Z,3.67
2022-10-31T03:02:25.651Z,3.80
2022-10-31T03:05:17.110Z,3.83
2022-10-31T03:07:54.396Z,3.65
2022-10-31T03:10:41.859Z,3.92
2022-10-31T03:13:48.137Z,4.10
2022-10-31T03:16:33.004Z,4.00
2022-10-31T03:19:18.920Z,3.70
2022-10-31T03:21:54.136Z,3.60
2022-10-31T03:24:26.959Z,3.50
2022-10-31T03:26:57.958Z,3.35
2022-10-31T03:29:29.720Z,3.35
2022-10-31T03:32:04.668Z,3.40
2022-10-31T03:34:33.307Z,3.40
2022-10-31T03:37:04.866Z,3.60
2022-10-31T03:39:34.379Z,3.20
2022-10-31T03:42:15.227Z,3.38
2022-10-31T03:44:57.034Z,3.15
2022-10-31T03:47:24.759Z,3.60
2022-10-31T03:49:52.503Z,3.47
2022-10-31T03:52:35.345Z,3.15
2022-10-31T03:55:40.642Z,8.38
2022-10-31T03:58:28.394Z,4.70
2022-10-31T04:00:58.883Z,3.10
2022-10-31T04:03:35.814Z,3.60
2022-10-31T04:06:11.153Z,3.28
2022-10-31T04:08:47.860Z,3.10
2022-10-31T04:11:22.606Z,3.13
2022-10-31T04:14:09.898Z,3.53
2022-10-31T04:16:40.211Z,4.00
2022-10-31T04:19:07.853Z,3.40
2022-10-31T04:21:35.167Z,3.70
2022-10-31T04:24:02.415Z,3.95
2022-10-31T04:26:31.216Z,3.40
2022-10-31T04:28:58.896Z,3.33
2022-10-31T04:31:28.359Z,3.95
2022-10-31T04:33:55.949Z,3.40
2022-10-31T04:36:23.875Z,4.25
2022-10-31T04:38:51.262Z,3.47
2022-10-31T04:41:33.248Z,3.80
2022-10-31T04:44:03.058Z,3.17
2022-10-31T04:46:31.322Z,3.45
2022-10-31T04:49:02.634Z,3.97
2022-10-31T04:51:30.102Z,4.57
2022-10-31T04:53:58.878Z,4.65
2022-10-31T04:56:29.328Z,4.70
2022-10-31T04:58:59.749Z,3.58
2022-10-31T05:01:32.732Z,4.35
2022-10-31T05:04:01.297Z,4.75
2022-10-31T05:06:29.713Z,4.70
2022-10-31T05:08:57.822Z,4.22
2022-10-31T05:11:25.410Z,5.35
2022-10-31T05:13:54.943Z,4.93
2022-10-31T05:16:54.733Z,4.55
2022-10-31T05:19:47.966Z,4.47
2022-10-31T05:22:52.931Z,4.10
2022-10-31T05:25:24.469Z,3.60
2022-10-31T05:27:53.365Z,3.92
2022-10-31T05:30:28.854Z,3.88
2022-10-31T05:32:56.387Z,4.72
2022-10-31T05:35:36.059Z,4.43
2022-10-31T05:38:29.693Z,4.90
2022-10-31T05:41:04.274Z,5.75
2022-10-31T05:43:34.749Z,5.88
2022-10-31T05:46:05.597Z,6.65
2022-10-31T05:48:51.175Z,7.32
2022-10-31T05:54:05.635Z,6.70
2022-10-31T05:56:33.007Z,5.45
2022-10-31T05:59:00.910Z,4.80
2022-10-31T06:01:28.527Z,5.07
2022-10-31T06:03:58.251Z,4.35
2022-10-31T06:06:25.701Z,4.35
2022-10-31T06:08:53.084Z,4.05
2022-10-31T06:11:23.170Z,5.10
2022-10-31T06:14:02.661Z,4.82
2022-10-31T06:16:46.323Z,5.53
2022-10-31T06:19:42.639Z,5.22
2022-10-31T06:22:14.985Z,4.50
2022-10-31T06:24:44.272Z,4.90
2022-10-31T06:27:27.963Z,6.53
2022-10-31T06:29:55.802Z,6.45
2022-10-31T06:32:32.279Z,7.07
2022-10-31T06:34:59.629Z,5.82
2022-10-31T06:37:26.960Z,6.75
2022-10-31T06:40:01.003Z,7.25
2022-10-31T06:42:28.416Z,7.22
2022-10-31T06:44:55.880Z,7.20
2022-10-31T06:50:32.276Z,6.15
2022-10-31T06:53:01.798Z,6.97
2022-10-31T06:55:29.732Z,6.22
2022-10-31T06:58:03.135Z,7.10
2022-10-31T07:00:31.980Z,7.38
2022-10-31T07:03:07.881Z,8.13
2022-10-31T07:05:36.938Z,8.35
2022-10-31T07:08:07.915Z,8.38
2022-10-31T07:10:40.361Z,8.85
2022-10-31T07:13:15.512Z,8.80
2022-10-31T07:15:50.293Z,6.72
2022-10-31T07:18:18.000Z,6.40
2022-10-31T07:20:45.302Z,7.20
2022-10-31T07:23:13.500Z,5.45
2022-10-31T07:25:46.538Z,6.72
2022-10-31T07:28:20.800Z,10.88
2022-10-31T07:30:52.894Z,7.90
2022-10-31T07:33:23.241Z,6.90
2022-10-31T07:36:11.952Z,7.20
2022-10-31T07:38:42.275Z,6.68
2022-10-31T07:41:10.934Z,9.65
2022-10-31T07:43:42.650Z,11.07
2022-10-31T07:46:18.832Z,11.68
2022-10-31T07:51:58.237Z,12.80
2022-10-31T07:54:44.050Z,13.02
2022-10-31T07:57:11.365Z,13.15
2022-10-31T07:59:39.616Z,12.38
2022-10-31T08:02:09.924Z,12.40
2022-10-31T08:04:49.720Z,11.05
2022-10-31T08:07:38.904Z,12.57
2022-10-31T08:10:08.807Z,12.98
2022-10-31T08:12:36.379Z,11.98
2022-10-31T08:15:08.366Z,11.73
2022-10-31T08:17:37.871Z,11.45
2022-10-31T08:20:06.900Z,11.23
2022-10-31T08:22:43.655Z,10.98
2022-10-31T08:25:11.824Z,12.15
2022-10-31T08:27:39.979Z,11.68
2022-10-31T08:30:11.125Z,11.07
2022-10-31T08:32:40.928Z,12.02
2022-10-31T08:35:44.737Z,10.95
2022-10-31T08:38:37.850Z,9.63
2022-10-31T08:41:05.327Z,8.95
2022-10-31T08:43:33.465Z,8.68
2022-10-31T08:46:02.977Z,8.45
2022-10-31T08:48:30.749Z,9.20
2022-10-31T08:50:59.860Z,8.48
2022-10-31T08:53:28.872Z,7.55
2022-10-31T08:56:25.256Z,7.22
2022-10-31T08:58:55.013Z,8.23
2022-10-31T09:01:32.093Z,8.43
2022-10-31T09:03:59.663Z,9.95
2022-10-31T09:06:27.748Z,7.70
2022-10-31T09:08:55.293Z,6.60
2022-10-31T09:11:25.843Z,6.70
2022-10-31T09:16:57.111Z,6.85
2022-10-31T09:19:31.876Z,7.20
2022-10-31T09:21:59.202Z,7.60
2022-10-31T09:24:27.466Z,7.88
2022-10-31T09:26:54.767Z,10.82
2022-10-31T09:29:27.729Z,12.73
2022-10-31T09:31:59.214Z,13.50
2022-10-31T09:34:29.140Z,11.73
2022-10-31T09:37:22.279Z,9.95
2022-10-31T09:39:50.146Z,10.38
2022-10-31T09:42:36.407Z,10.15
2022-10-31T09:45:30.947Z,8.32
2022-10-31T09:48:23.284Z,8.32
2022-10-31T09:51:05.990Z,8.85
2022-10-31T09:53:53.251Z,7.25
2022-10-31T09:56:25.850Z,7.97
2022-10-31T09:59:01.852Z,7.88
2022-10-31T10:01:41.447Z,7.97
2022-10-31T10:04:30.476Z,6.55
2022-10-31T10:07:49.936Z,6.10
2022-10-31T10:10:33.770Z,6.20
2022-10-31T10:13:51.642Z,6.38
2022-10-31T10:16:51.379Z,6.43
2022-10-31T10:19:36.782Z,6.22
2022-10-31T10:22:23.074Z,6.90
2022-10-31T10:24:59.452Z,7.22
2022-10-31T10:27:53.971Z,6.35
2022-10-31T10:30:34.650Z,5.55
2022-10-31T10:33:09.632Z,5.95
2022-10-31T10:35:44.688Z,6.35
2022-10-31T10:38:18.900Z,5.55
2022-10-31T10:40:47.668Z,5.50
2022-10-31T10:43:40.417Z,5.28
2022-10-31T10:46:45.305Z,5.50
2022-10-31T10:49:20.424Z,5.97
2022-10-31T10:52:13.133Z,6.45
2022-10-31T10:55:19.943Z,5.80
2022-10-31T10:57:57.734Z,6.03
2022-10-31T11:00:32.752Z,6.05
2022-10-31T11:03:00.866Z,5.40
2022-10-31T11:05:52.485Z,5.82
2022-10-31T11:08:28.397Z,6.45
2022-10-31T11:11:07.620Z,6.10
2022-10-31T11:13:37.584Z,5.93
2022-10-31T11:16:10.217Z,5.95
2022-10-31T11:18:46.871Z,5.55
2022-10-31T11:21:28.142Z,6.32
2022-10-31T11:24:10.584Z,5.65
2022-10-31T11:26:43.092Z,5.82
2022-10-31T11:29:26.153Z,5.85
2022-10-31T11:31:58.356Z,5.35
2022-10-31T11:34:34.687Z,5.93
2022-10-31T11:37:24.805Z,5.97
2022-10-31T11:40:00.202Z,6.72
2022-10-31T11:42:31.763Z,6.28
2022-10-31T11:44:59.403Z,6.25
2022-10-31T11:47:31.197Z,6.85
2022-10-31T11:50:03.168Z,6.25
2022-10-31T11:52:33.616Z,6.43
2022-10-31T11:55:32.471Z,6.57
2022-10-31T11:58:00.241Z,6.05
2022-10-31T12:00:32.779Z,6.38
2022-10-31T12:03:24.458Z,7.60
2022-10-31T12:06:06.985Z,6.72
2022-10-31T12:08:37.400Z,6.72
2022-10-31T12:11:16.605Z,7.05
2022-10-31T12:14:16.434Z,6.93
2022-10-31T12:17:00.594Z,7.32
2022-10-31T12:20:03.001Z,7.68
2022-10-31T12:22:58.072Z,7.28
2022-10-31T12:25:55.054Z,8.05
2022-10-31T12:28:49.910Z,7.80
2022-10-31T12:31:30.591Z,8.30
2022-10-31T12:34:12.797Z,7.90
2022-10-31T12:37:04.687Z,7.68
2022-10-31T12:39:37.879Z,8.13
2022-10-31T12:42:39.700Z,8.23
2022-10-31T12:45:09.764Z,8.50
2022-10-31T12:47:44.692Z,8.50
2022-10-31T12:50:14.814Z,8.27
2022-10-31T12:53:02.435Z,9.18
2022-10-31T12:56:02.118Z,9.63
2022-10-31T12:58:41.775Z,8.50
2022-10-31T13:01:16.053Z,7.97
2022-10-31T13:04:03.062Z,9.13
2022-10-31T13:06:51.751Z,8.45
2022-10-31T13:09:31.845Z,8.88
2022-10-31T13:12:11.841Z,8.45
2022-10-31T13:14:48.711Z,8.27
2022-10-31T13:17:42.818Z,8.32
2022-10-31T13:20:25.942Z,7.28
2022-10-31T13:23:48.327Z,8.02
2022-10-31T13:26:23.861Z,7.07
2022-10-31T13:29:05.302Z,6.97
2022-10-31T13:31:32.818Z,7.00
2022-10-31T13:34:11.288Z,6.30
2022-10-31T13:37:22.637Z,6.07
2022-10-31T13:40:05.031Z,6.50
2022-10-31T13:42:47.112Z,6.65
2022-10-31T13:45:20.088Z,5.85
2022-10-31T13:48:16.786Z,6.47
2022-10-31T13:50:57.272Z,6.57
2022-10-31T13:53:52.047Z,7.05
2022-10-31T13:56:21.950Z,6.47
2022-10-31T13:59:26.685Z,6.75
2022-10-31T14:02:00.985Z,6.55
2022-10-31T14:04:38.353Z,6.00
2022-10-31T14:07:16.520Z,6.65
2022-10-31T14:09:52.761Z,5.97
2022-10-31T14:12:27.794Z,7.82
2022-10-31T14:17:29.071Z,5.85
2022-10-31T14:20:11.945Z,6.07
2022-10-31T14:22:42.881Z,5.28
2022-10-31T14:25:30.744Z,6.38
2022-10-31T14:27:59.853Z,6.05
2022-10-31T14:30:29.995Z,5.72
2022-10-31T14:33:03.545Z,5.57
2022-10-31T14:36:08.345Z,6.32
2022-10-31T14:38:44.621Z,6.05
2022-10-31T14:41:20.462Z,5.35
2022-10-31T14:44:38.686Z,6.40
2022-10-31T14:47:40.964Z,5.93
2022-10-31T14:50:33.265Z,6.25
2022-10-31T14:53:04.954Z,6.53
2022-10-31T14:55:33.124Z,6.97
2022-10-31T14:58:07.554Z,6.63
2022-10-31T15:00:37.075Z,6.57
2022-10-31T15:03:19.443Z,6.90
2022-10-31T15:05:52.494Z,7.68
2022-10-31T15:08:40.782Z,7.53
2022-10-31T15:11:16.926Z,8.35
2022-10-31T15:13:54.369Z,8.70
2022-10-31T15:19:08.329Z,8.00
2022-10-31T15:21:43.135Z,8.30
2022-10-31T15:24:19.940Z,8.80
2022-10-31T15:26:51.312Z,9.55
2022-10-31T15:29:23.750Z,7.95
2022-10-31T15:32:19.730Z,8.05
2022-10-31T15:34:47.152Z,7.18
2022-10-31T15:37:17.431Z,7.10
2022-10-31T15:39:48.519Z,7.22
2022-10-31T15:42:21.299Z,6.90
2022-10-31T15:44:54.340Z,6.28
2022-10-31T15:47:27.933Z,6.30
2022-10-31T15:49:57.033Z,5.97
2022-10-31T15:52:42.398Z,6.15
2022-10-31T15:55:16.958Z,5.90
2022-10-31T15:57:46.626Z,6.15
2022-10-31T16:00:30.553Z,6.50
2022-10-31T16:03:31.252Z,6.63
2022-10-31T16:06:05.030Z,7.03
2022-10-31T16:08:32.308Z,7.15
2022-10-31T16:11:25.156Z,7.13
2022-10-31T16:14:07.386Z,7.93
2022-10-31T16:16:41.361Z,8.15
2022-10-31T16:19:25.372Z,7.75
2022-10-31T16:22:03.482Z,7.82
2022-10-31T16:24:34.411Z,8.90
2022-10-31T16:27:07.244Z,8.10
2022-10-31T16:29:34.635Z,8.68
2022-10-31T16:32:02.182Z,7.93
2022-10-31T16:34:29.513Z,7.78
2022-10-31T16:36:56.924Z,8.25
2022-10-31T16:39:26.417Z,8.93
2022-10-31T16:41:57.125Z,8.93
2022-10-31T16:44:27.078Z,8.65
2022-10-31T16:47:10.687Z,9.77
2022-10-31T16:49:38.215Z,9.02
2022-10-31T16:52:07.006Z,9.25
2022-10-31T16:54:34.316Z,10.27
2022-10-31T16:57:03.821Z,9.13
2022-10-31T16:59:33.152Z,9.13
2022-10-31T17:02:01.781Z,9.70
2022-10-31T17:04:29.627Z,9.25
2022-10-31T17:06:57.087Z,10.65
2022-10-31T17:09:24.397Z,10.55
2022-10-31T17:11:54.333Z,10.50
2022-10-31T17:14:22.411Z,12.10
2022-10-31T17:16:50.446Z,12.18
2022-10-31T17:19:17.864Z,12.65
2022-10-31T17:21:45.550Z,13.15
2022-10-31T17:24:15.307Z,12.80
2022-10-31T17:26:43.330Z,12.85
2022-10-31T17:29:10.731Z,12.93
2022-10-31T17:31:39.546Z,13.27
2022-10-31T17:34:08.859Z,12.90
2022-10-31T17:36:36.417Z,13.88
2022-10-31T17:39:09.961Z,12.88
2022-10-31T17:41:37.372Z,14.02
2022-10-31T17:44:04.955Z,12.90
2022-10-31T17:46:32.417Z,13.70
2022-10-31T17:49:02.618Z,13.65
2022-10-31T17:51:30.114Z,15.32
2022-10-31T17:53:59.217Z,16.38
2022-10-31T17:56:26.991Z,15.35
2022-10-31T17:58:57.373Z,15.45
2022-10-31T18:01:25.150Z,16.08
2022-10-31T18:03:52.796Z,15.15
2022-10-31T18:06:21.605Z,13.38
2022-10-31T18:08:48.944Z,13.20
2022-10-31T18:11:22.248Z,14.27
2022-10-31T18:13:58.593Z,13.20
2022-10-31T18:16:26.686Z,13.00
2022-10-31T18:18:58.840Z,11.88
2022-10-31T18:21:26.708Z,11.80
2022-10-31T18:23:58.654Z,12.65
2022-10-31T18:26:27.727Z,13.68
2022-10-31T18:28:55.758Z,14.15
2022-10-31T18:31:23.411Z,13.13
2022-10-31T18:33:54.953Z,14.10
2022-10-31T18:36:22.937Z,13.18
2022-10-31T18:38:50.442Z,12.27
2022-10-31T18:41:17.892Z,10.88
2022-10-31T18:43:45.384Z,10.73
2022-10-31T18:46:15.394Z,10.50
2022-10-31T18:48:44.710Z,10.50
2022-10-31T18:51:18.590Z,11.07
2022-10-31T18:53:57.144Z,11.15
2022-10-31T18:56:25.201Z,10.80
2022-10-31T18:58:52.906Z,10.38
2022-10-31T19:01:23.188Z,10.27
2022-10-31T19:03:55.993Z,10.45
2022-10-31T19:06:25.501Z,10.35
2022-10-31T19:08:59.327Z,10.15
2022-10-31T19:11:27.527Z,9.43
2022-10-31T19:13:55.063Z,9.43
2022-10-31T19:16:22.350Z,10.73
2022-10-31T19:18:49.820Z,9.38
2022-10-31T19:21:18.511Z,10.15
2022-10-31T19:23:46.449Z,10.00
2022-10-31T19:26:14.597Z,10.82
2022-10-31T19:28:42.758Z,11.40
2022-10-31T19:31:10.781Z,10.98
2022-10-31T19:33:38.790Z,11.07
2022-10-31T19:36:15.202Z,9.88
2022-10-31T19:38:48.068Z,9.52
2022-10-31T19:41:22.167Z,8.70
2022-10-31T19:43:50.048Z,9.15
2022-10-31T19:46:22.695Z,8.23
2022-10-31T19:49:06.794Z,9.60
2022-10-31T19:51:34.350Z,8.95
2022-10-31T19:54:01.800Z,10.10
2022-10-31T19:56:29.630Z,16.80
2022-10-31T19:59:00.023Z,11.10
2022-10-31T20:01:28.591Z,11.23
2022-10-31T20:03:56.115Z,12.05
2022-10-31T20:06:28.163Z,11.93
2022-10-31T20:08:56.781Z,11.10
2022-10-31T20:11:26.617Z,11.27
2022-10-31T20:13:58.644Z,9.70
2022-10-31T20:16:27.342Z,9.55
2022-10-31T20:18:55.273Z,9.25
2022-10-31T20:21:26.623Z,10.07
2022-10-31T20:24:01.502Z,9.75
2022-10-31T20:26:31.382Z,11.60
2022-10-31T20:29:00.420Z,12.77
2022-10-31T20:31:31.729Z,13.77
2022-10-31T20:33:59.216Z,10.45
2022-10-31T20:36:28.964Z,10.43
2022-10-31T20:38:56.332Z,9.00
2022-10-31T20:41:23.959Z,8.50
2022-10-31T20:43:52.513Z,9.80
2022-10-31T20:46:22.374Z,10.00
2022-10-31T20:48:50.619Z,10.30
2022-10-31T20:51:21.713Z,8.13
2022-10-31T20:53:51.044Z,9.40
2022-10-31T20:56:20.665Z,10.23
2022-10-31T20:58:50.691Z,8.55
2022-10-31T21:01:21.207Z,8.30
2022-10-31T21:03:49.356Z,8.93
2022-10-31T21:06:18.455Z,8.55
2022-10-31T21:08:45.942Z,8.88
2022-10-31T21:11:18.876Z,8.93
2022-10-31T21:13:47.775Z,8.05
2022-10-31T21:16:19.540Z,9.38
2022-10-31T21:18:48.126Z,10.30
2022-10-31T21:21:29.170Z,9.55
2022-10-31T21:24:02.125Z,10.00
2022-10-31T21:26:33.723Z,10.35
2022-10-31T21:29:02.624Z,9.23
2022-10-31T21:31:30.029Z,9.70
2022-10-31T21:33:57.320Z,10.73
2022-10-31T21:36:26.514Z,10.60
2022-10-31T21:38:55.149Z,9.90
2022-10-31T21:41:24.699Z,9.07
2022-10-31T21:43:54.568Z,10.00
2022-10-31T21:46:30.714Z,8.95
2022-10-31T21:48:58.465Z,8.40
2022-10-31T21:51:35.922Z,8.38
2022-10-31T21:54:23.706Z,8.60
2022-10-31T21:56:51.889Z,8.18
2022-10-31T21:59:19.290Z,8.65
2022-10-31T22:01:46.802Z,8.00
2022-10-31T22:04:14.363Z,8.40
2022-10-31T22:06:41.772Z,7.68
2022-10-31T22:09:11.948Z,7.40
2022-10-31T22:11:41.093Z,6.95
2022-10-31T22:14:12.092Z,6.72
2022-10-31T22:16:40.126Z,6.68
2022-10-31T22:19:10.246Z,6.22
2022-10-31T22:21:42.990Z,6.80
2022-10-31T22:24:11.246Z,6.07
2022-10-31T22:26:39.520Z,6.10
2022-10-31T22:29:12.053Z,6.30
2022-10-31T22:31:42.086Z,7.40
2022-10-31T22:34:10.351Z,8.63
2022-10-31T22:36:38.320Z,8.90
2022-10-31T22:39:06.739Z,9.73
2022-10-31T22:41:36.598Z,9.07
2022-10-31T22:44:05.710Z,9.93
2022-10-31T22:46:36.032Z,8.95
2022-10-31T22:49:06.919Z,9.38
2022-10-31T22:51:37.931Z,9.98
2022-10-31T22:54:08.027Z,9.02
2022-10-31T22:56:35.895Z,7.97
2022-10-31T22:59:03.848Z,9.57
2022-10-31T23:01:33.331Z,8.70
2022-10-31T23:04:02.173Z,8.73
2022-10-31T23:06:31.977Z,7.72
2022-10-31T23:09:04.768Z,7.97
2022-10-31T23:11:34.852Z,8.70
2022-10-31T23:14:14.066Z,10.20
2022-10-31T23:17:00.813Z,7.93
2022-10-31T23:19:30.907Z,5.78
2022-10-31T23:22:02.318Z,5.90
2022-10-31T23:24:39.406Z,6.85
2022-10-31T23:27:10.073Z,5.28
2022-10-31T23:29:37.687Z,5.25
2022-10-31T23:32:07.938Z,4.80
2022-10-31T23:34:35.419Z,4.32
2022-10-31T23:37:02.911Z,4.10
2022-10-31T23:39:30.481Z,5.93
2022-10-31T23:42:00.521Z,8.73
2022-10-31T23:44:29.118Z,7.10
2022-10-31T23:46:56.651Z,7.38
2022-10-31T23:49:24.108Z,7.50
2022-10-31T23:51:51.589Z,5.47
2022-10-31T23:54:19.152Z,5.50
2022-10-31T23:56:46.475Z,7.03
2022-10-31T23:59:13.796Z,6.57
